sensor_id;sensor_type;location;lat;lon;timestamp;P1;durP1;ratioP1;P2;durP2;ratioP2
8413;SDS011;4244;48.684;9.028;2023-01-23T00:00:00;12.53;;;10.67;;
8413;SDS011;4244;48.684;9.028;2023-01-23T00:02:27;11.87;;;10.70;;
8413;SDS011;4244;48.684;9.028;2023-01-23T00:04:53;11.70;;;10.13;;
8413;SDS011;4244;48.684;9.028;2023-01-23T00:07:18;11.70;;;10.50;;
8413;SDS011;4244;48.684;9.028;2023-01-23T00:09:44;13.80;;;10.40;;
8413;SDS011;4244;48.684;9.028;2023-01-23T00:12:10;12.77;;;10.93;;
8413;SDS011;4244;48.684;9.028;2023-01-23T00:14:35;12.60;;;11.30;;
8413;SDS011;4244;48.684;9.028;2023-01-23T00:17:01;12.63;;;10.90;;
8413;SDS011;4244;48.684;9.028;2023-01-23T00:19:26;12.30;;;11.00;;
8413;SDS011;4244;48.684;9.028;2023-01-23T00:21:52;11.47;;;10.37;;
8413;SDS011;4244;48.684;9.028;2023-01-23T00:24:18;10.83;;;9.73;;
8413;SDS011;4244;48.684;9.028;2023-01-23T00:26:43;13.13;;;11.83;;
8413;SDS011;4244;48.684;9.028;2023-01-23T00:29:09;13.37;;;11.97;;
8413;SDS011;4244;48.684;9.028;2023-01-23T00:31:36;12.47;;;11.00;;
8413;SDS011;4244;48.684;9.028;2023-01-23T00:34:04;12.30;;;11.03;;
8413;SDS011;4244;48.684;9.028;2023-01-23T00:36:35;12.57;;;10.70;;
8413;SDS011;4244;48.684;9.028;2023-01-23T00:39:02;11.37;;;10.03;;
8413;SDS011;4244;48.684;9.028;2023-01-23T00:41:30;13.17;;;11.77;;
8413;SDS011;4244;48.684;9.028;2023-01-23T00:43:56;13.30;;;11.97;;
8413;SDS011;4244;48.684;9.028;2023-01-23T00:46:22;12.93;;;11.63;;
8413;SDS011;4244;48.684;9.028;2023-01-23T00:48:48;13.30;;;11.27;;
8413;SDS011;4244;48.684;9.028;2023-01-23T00:51:14;12.80;;;11.50;;
8413;SDS011;4244;48.684;9.028;2023-01-23T00:53:40;12.40;;;10.63;;
8413;SDS011;4244;48.684;9.028;2023-01-23T00:56:05;11.57;;;10.37;;
8413;SDS011;4244;48.684;9.028;2023-01-23T00:58:31;11.17;;;9.97;;
8413;SDS011;4244;48.684;9.028;2023-01-23T01:00:57;11.63;;;10.23;;
8413;SDS011;4244;48.684;9.028;2023-01-23T01:03:23;12.47;;;11.07;;
8413;SDS011;4244;48.684;9.028;2023-01-23T01:05:49;12.40;;;11.20;;
8413;SDS011;4244;48.684;9.028;2023-01-23T01:08:15;12.43;;;11.13;;
8413;SDS011;4244;48.684;9.028;2023-01-23T01:10:41;11.00;;;9.90;;
8413;SDS011;4244;48.684;9.028;2023-01-23T01:13:07;13.20;;;11.20;;
8413;SDS011;4244;48.684;9.028;2023-01-23T01:15:33;12.00;;;10.80;;
8413;SDS011;4244;48.684;9.028;2023-01-23T01:17:59;10.93;;;9.80;;
8413;SDS011;4244;48.684;9.028;2023-01-23T01:20:25;11.93;;;10.73;;
8413;SDS011;4244;48.684;9.028;2023-01-23T01:22:52;12.60;;;11.30;;
8413;SDS011;4244;48.684;9.028;2023-01-23T01:25:18;12.37;;;11.07;;
8413;SDS011;4244;48.684;9.028;2023-01-23T01:27:44;11.03;;;9.87;;
8413;SDS011;4244;48.684;9.028;2023-01-23T01:30:10;13.07;;;11.70;;
8413;SDS011;4244;48.684;9.028;2023-01-23T01:32:36;11.07;;;9.97;;
8413;SDS011;4244;48.684;9.028;2023-01-23T01:35:04;10.97;;;9.87;;
8413;SDS011;4244;48.684;9.028;2023-01-23T01:37:34;11.37;;;10.20;;
8413;SDS011;4244;48.684;9.028;2023-01-23T01:40:01;12.93;;;11.03;;
8413;SDS011;4244;48.684;9.028;2023-01-23T01:42:28;11.10;;;9.67;;
8413;SDS011;4244;48.684;9.028;2023-01-23T01:44:55;11.33;;;10.20;;
8413;SDS011;4244;48.684;9.028;2023-01-23T01:47:23;12.33;;;10.40;;
8413;SDS011;4244;48.684;9.028;2023-01-23T01:49:49;11.70;;;10.47;;
8413;SDS011;4244;48.684;9.028;2023-01-23T01:52:16;11.67;;;10.43;;
8413;SDS011;4244;48.684;9.028;2023-01-23T01:59:49;12.60;;;10.87;;
8413;SDS011;4244;48.684;9.028;2023-01-23T02:02:21;12.80;;;10.90;;
8413;SDS011;4244;48.684;9.028;2023-01-23T02:04:49;11.80;;;10.57;;
8413;SDS011;4244;48.684;9.028;2023-01-23T02:07:21;12.03;;;10.83;;
8413;SDS011;4244;48.684;9.028;2023-01-23T02:10:09;12.10;;;10.80;;
8413;SDS011;4244;48.684;9.028;2023-01-23T02:12:35;11.47;;;9.97;;
8413;SDS011;4244;48.684;9.028;2023-01-23T02:15:02;10.30;;;9.03;;
8413;SDS011;4244;48.684;9.028;2023-01-23T02:17:29;12.07;;;10.23;;
8413;SDS011;4244;48.684;9.028;2023-01-23T02:20:04;11.20;;;9.97;;
8413;SDS011;4244;48.684;9.028;2023-01-23T02:27:52;12.53;;;11.23;;
8413;SDS011;4244;48.684;9.028;2023-01-23T02:30:17;13.53;;;11.73;;
8413;SDS011;4244;48.684;9.028;2023-01-23T02:32:44;12.83;;;11.50;;
8413;SDS011;4244;48.684;9.028;2023-01-23T02:35:21;12.43;;;10.37;;
8413;SDS011;4244;48.684;9.028;2023-01-23T02:37:53;11.33;;;10.13;;
8413;SDS011;4244;48.684;9.028;2023-01-23T02:40:28;13.47;;;11.23;;
8413;SDS011;4244;48.684;9.028;2023-01-23T02:43:00;14.87;;;11.97;;
8413;SDS011;4244;48.684;9.028;2023-01-23T02:45:28;13.63;;;11.77;;
8413;SDS011;4244;48.684;9.028;2023-01-23T02:47:53;13.43;;;11.43;;
8413;SDS011;4244;48.684;9.028;2023-01-23T02:50:19;12.70;;;11.20;;
8413;SDS011;4244;48.684;9.028;2023-01-23T02:52:44;15.90;;;13.20;;
8413;SDS011;4244;48.684;9.028;2023-01-23T02:55:11;14.50;;;12.37;;
8413;SDS011;4244;48.684;9.028;2023-01-23T02:57:42;13.23;;;11.03;;
8413;SDS011;4244;48.684;9.028;2023-01-23T03:00:09;15.00;;;12.30;;
8413;SDS011;4244;48.684;9.028;2023-01-23T03:02:45;12.87;;;11.50;;
8413;SDS011;4244;48.684;9.028;2023-01-23T03:05:12;13.50;;;12.00;;
8413;SDS011;4244;48.684;9.028;2023-01-23T03:07:38;14.13;;;11.97;;
8413;SDS011;4244;48.684;9.028;2023-01-23T03:10:03;14.80;;;12.07;;
8413;SDS011;4244;48.684;9.028;2023-01-23T03:12:29;15.13;;;12.50;;
8413;SDS011;4244;48.684;9.028;2023-01-23T03:14:55;14.07;;;12.57;;
8413;SDS011;4244;48.684;9.028;2023-01-23T03:17:22;12.90;;;11.53;;
8413;SDS011;4244;48.684;9.028;2023-01-23T03:19:48;14.67;;;13.00;;
8413;SDS011;4244;48.684;9.028;2023-01-23T03:22:14;13.10;;;11.00;;
8413;SDS011;4244;48.684;9.028;2023-01-23T03:24:40;13.87;;;11.20;;
8413;SDS011;4244;48.684;9.028;2023-01-23T03:27:06;15.30;;;13.30;;
8413;SDS011;4244;48.684;9.028;2023-01-23T03:29:31;14.20;;;12.03;;
8413;SDS011;4244;48.684;9.028;2023-01-23T03:32:16;16.27;;;12.87;;
8413;SDS011;4244;48.684;9.028;2023-01-23T03:34:41;15.70;;;13.03;;
8413;SDS011;4244;48.684;9.028;2023-01-23T03:37:08;15.07;;;13.40;;
8413;SDS011;4244;48.684;9.028;2023-01-23T03:39:34;15.27;;;13.10;;
8413;SDS011;4244;48.684;9.028;2023-01-23T03:42:19;15.00;;;12.77;;
8413;SDS011;4244;48.684;9.028;2023-01-23T03:44:45;14.83;;;12.53;;
8413;SDS011;4244;48.684;9.028;2023-01-23T03:47:10;15.07;;;12.97;;
8413;SDS011;4244;48.684;9.028;2023-01-23T03:49:36;14.83;;;12.40;;
8413;SDS011;4244;48.684;9.028;2023-01-23T03:52:02;13.30;;;11.43;;
8413;SDS011;4244;48.684;9.028;2023-01-23T03:54:28;17.63;;;14.00;;
8413;SDS011;4244;48.684;9.028;2023-01-23T03:56:54;15.27;;;13.40;;
8413;SDS011;4244;48.684;9.028;2023-01-23T03:59:19;14.83;;;13.20;;
8413;SDS011;4244;48.684;9.028;2023-01-23T04:01:45;14.87;;;12.37;;
8413;SDS011;4244;48.684;9.028;2023-01-23T04:04:12;15.23;;;13.47;;
8413;SDS011;4244;48.684;9.028;2023-01-23T04:06:37;15.83;;;13.50;;
8413;SDS011;4244;48.684;9.028;2023-01-23T04:09:03;16.43;;;12.43;;
8413;SDS011;4244;48.684;9.028;2023-01-23T04:11:29;15.23;;;12.90;;
8413;SDS011;4244;48.684;9.028;2023-01-23T04:13:55;14.43;;;12.60;;
8413;SDS011;4244;48.684;9.028;2023-01-23T04:16:21;16.73;;;13.20;;
8413;SDS011;4244;48.684;9.028;2023-01-23T04:18:47;15.13;;;13.20;;
8413;SDS011;4244;48.684;9.028;2023-01-23T04:21:15;17.10;;;14.10;;
8413;SDS011;4244;48.684;9.028;2023-01-23T04:23:41;16.80;;;13.93;;
8413;SDS011;4244;48.684;9.028;2023-01-23T04:26:07;16.10;;;13.60;;
8413;SDS011;4244;48.684;9.028;2023-01-23T04:28:33;15.73;;;13.20;;
8413;SDS011;4244;48.684;9.028;2023-01-23T04:30:58;14.67;;;13.10;;
8413;SDS011;4244;48.684;9.028;2023-01-23T04:33:24;15.33;;;12.93;;
8413;SDS011;4244;48.684;9.028;2023-01-23T04:35:51;16.40;;;14.10;;
8413;SDS011;4244;48.684;9.028;2023-01-23T04:38:18;15.83;;;13.33;;
8413;SDS011;4244;48.684;9.028;2023-01-23T04:40:45;15.60;;;12.97;;
8413;SDS011;4244;48.684;9.028;2023-01-23T04:43:11;15.77;;;13.37;;
8413;SDS011;4244;48.684;9.028;2023-01-23T04:45:37;15.53;;;13.83;;
8413;SDS011;4244;48.684;9.028;2023-01-23T04:48:02;14.93;;;12.53;;
8413;SDS011;4244;48.684;9.028;2023-01-23T04:50:29;16.23;;;13.10;;
8413;SDS011;4244;48.684;9.028;2023-01-23T04:52:54;15.60;;;13.07;;
8413;SDS011;4244;48.684;9.028;2023-01-23T04:55:22;16.13;;;13.70;;
8413;SDS011;4244;48.684;9.028;2023-01-23T04:57:48;17.00;;;14.30;;
8413;SDS011;4244;48.684;9.028;2023-01-23T05:00:14;18.23;;;14.70;;
8413;SDS011;4244;48.684;9.028;2023-01-23T05:02:40;16.40;;;12.80;;
8413;SDS011;4244;48.684;9.028;2023-01-23T05:05:06;16.93;;;14.60;;
8413;SDS011;4244;48.684;9.028;2023-01-23T05:07:32;19.00;;;14.13;;
8413;SDS011;4244;48.684;9.028;2023-01-23T05:13:09;15.53;;;13.20;;
8413;SDS011;4244;48.684;9.028;2023-01-23T05:15:35;17.53;;;13.80;;
8413;SDS011;4244;48.684;9.028;2023-01-23T05:18:01;14.90;;;12.97;;
8413;SDS011;4244;48.684;9.028;2023-01-23T05:20:26;15.90;;;12.70;;
8413;SDS011;4244;48.684;9.028;2023-01-23T05:22:52;15.40;;;13.57;;
8413;SDS011;4244;48.684;9.028;2023-01-23T05:25:19;16.50;;;13.30;;
8413;SDS011;4244;48.684;9.028;2023-01-23T05:27:45;17.57;;;14.53;;
8413;SDS011;4244;48.684;9.028;2023-01-23T05:30:11;16.03;;;13.03;;
8413;SDS011;4244;48.684;9.028;2023-01-23T05:32:37;15.80;;;13.53;;
8413;SDS011;4244;48.684;9.028;2023-01-23T05:35:02;17.13;;;14.03;;
8413;SDS011;4244;48.684;9.028;2023-01-23T05:37:28;16.63;;;13.00;;
8413;SDS011;4244;48.684;9.028;2023-01-23T05:39:54;16.07;;;13.37;;
8413;SDS011;4244;48.684;9.028;2023-01-23T05:42:20;17.80;;;13.93;;
8413;SDS011;4244;48.684;9.028;2023-01-23T05:44:45;18.97;;;13.60;;
8413;SDS011;4244;48.684;9.028;2023-01-23T05:47:11;18.03;;;14.10;;
8413;SDS011;4244;48.684;9.028;2023-01-23T05:49:36;15.00;;;13.17;;
8413;SDS011;4244;48.684;9.028;2023-01-23T05:52:02;16.53;;;13.93;;
8413;SDS011;4244;48.684;9.028;2023-01-23T05:54:28;17.57;;;13.43;;
8413;SDS011;4244;48.684;9.028;2023-01-23T05:56:53;20.47;;;15.53;;
8413;SDS011;4244;48.684;9.028;2023-01-23T05:59:19;18.67;;;15.17;;
8413;SDS011;4244;48.684;9.028;2023-01-23T06:01:45;18.23;;;13.83;;
8413;SDS011;4244;48.684;9.028;2023-01-23T06:04:10;19.13;;;15.00;;
8413;SDS011;4244;48.684;9.028;2023-01-23T06:06:45;17.10;;;14.77;;
8413;SDS011;4244;48.684;9.028;2023-01-23T06:09:11;17.67;;;14.20;;
8413;SDS011;4244;48.684;9.028;2023-01-23T06:11:36;16.93;;;13.50;;
8413;SDS011;4244;48.684;9.028;2023-01-23T06:14:02;18.37;;;14.33;;
8413;SDS011;4244;48.684;9.028;2023-01-23T06:16:28;18.70;;;15.13;;
8413;SDS011;4244;48.684;9.028;2023-01-23T06:18:53;15.90;;;12.50;;
8413;SDS011;4244;48.684;9.028;2023-01-23T06:21:19;18.10;;;14.73;;
8413;SDS011;4244;48.684;9.028;2023-01-23T06:23:45;18.80;;;14.70;;
8413;SDS011;4244;48.684;9.028;2023-01-23T06:26:11;17.50;;;13.80;;
8413;SDS011;4244;48.684;9.028;2023-01-23T06:28:37;17.40;;;13.77;;
8413;SDS011;4244;48.684;9.028;2023-01-23T06:31:03;19.47;;;14.40;;
8413;SDS011;4244;48.684;9.028;2023-01-23T06:33:30;17.50;;;13.60;;
8413;SDS011;4244;48.684;9.028;2023-01-23T06:36:00;18.50;;;14.73;;
8413;SDS011;4244;48.684;9.028;2023-01-23T06:38:28;17.83;;;14.33;;
8413;SDS011;4244;48.684;9.028;2023-01-23T06:40:54;16.77;;;13.87;;
8413;SDS011;4244;48.684;9.028;2023-01-23T06:43:20;18.00;;;13.90;;
8413;SDS011;4244;48.684;9.028;2023-01-23T06:45:48;18.03;;;13.70;;
8413;SDS011;4244;48.684;9.028;2023-01-23T06:48:14;17.23;;;13.70;;
8413;SDS011;4244;48.684;9.028;2023-01-23T06:50:40;16.13;;;12.77;;
8413;SDS011;4244;48.684;9.028;2023-01-23T06:53:07;15.90;;;12.80;;
8413;SDS011;4244;48.684;9.028;2023-01-23T06:55:33;18.63;;;14.07;;
8413;SDS011;4244;48.684;9.028;2023-01-23T06:57:59;15.47;;;12.83;;
8413;SDS011;4244;48.684;9.028;2023-01-23T07:00:25;16.43;;;13.50;;
8413;SDS011;4244;48.684;9.028;2023-01-23T07:02:51;16.33;;;13.47;;
8413;SDS011;4244;48.684;9.028;2023-01-23T07:05:17;17.53;;;14.53;;
8413;SDS011;4244;48.684;9.028;2023-01-23T07:07:44;16.80;;;14.27;;
8413;SDS011;4244;48.684;9.028;2023-01-23T07:10:10;16.63;;;13.47;;
8413;SDS011;4244;48.684;9.028;2023-01-23T07:12:36;18.90;;;13.93;;
8413;SDS011;4244;48.684;9.028;2023-01-23T07:15:01;17.83;;;13.23;;
8413;SDS011;4244;48.684;9.028;2023-01-23T07:17:27;16.37;;;12.07;;
8413;SDS011;4244;48.684;9.028;2023-01-23T07:19:54;19.13;;;14.70;;
8413;SDS011;4244;48.684;9.028;2023-01-23T07:22:21;16.20;;;13.30;;
8413;SDS011;4244;48.684;9.028;2023-01-23T07:24:47;20.17;;;14.47;;
8413;SDS011;4244;48.684;9.028;2023-01-23T07:27:13;16.63;;;13.03;;
8413;SDS011;4244;48.684;9.028;2023-01-23T07:29:39;16.70;;;13.97;;
8413;SDS011;4244;48.684;9.028;2023-01-23T07:32:05;18.50;;;14.23;;
8413;SDS011;4244;48.684;9.028;2023-01-23T07:34:31;16.47;;;13.07;;
8413;SDS011;4244;48.684;9.028;2023-01-23T07:36:57;15.90;;;13.10;;
8413;SDS011;4244;48.684;9.028;2023-01-23T07:39:25;17.03;;;12.60;;
8413;SDS011;4244;48.684;9.028;2023-01-23T07:41:50;14.40;;;11.80;;
8413;SDS011;4244;48.684;9.028;2023-01-23T07:44:17;16.50;;;12.93;;
8413;SDS011;4244;48.684;9.028;2023-01-23T07:46:44;18.13;;;13.37;;
8413;SDS011;4244;48.684;9.028;2023-01-23T07:49:11;17.20;;;13.73;;
8413;SDS011;4244;48.684;9.028;2023-01-23T07:51:37;15.83;;;12.63;;
8413;SDS011;4244;48.684;9.028;2023-01-23T07:54:03;19.33;;;14.67;;
8413;SDS011;4244;48.684;9.028;2023-01-23T07:56:28;17.27;;;13.87;;
8413;SDS011;4244;48.684;9.028;2023-01-23T07:58:55;18.53;;;13.97;;
8413;SDS011;4244;48.684;9.028;2023-01-23T08:01:20;19.33;;;15.40;;
8413;SDS011;4244;48.684;9.028;2023-01-23T08:03:46;16.17;;;13.20;;
8413;SDS011;4244;48.684;9.028;2023-01-23T08:06:12;18.83;;;13.70;;
8413;SDS011;4244;48.684;9.028;2023-01-23T08:08:37;18.77;;;14.07;;
8413;SDS011;4244;48.684;9.028;2023-01-23T08:11:04;16.77;;;13.20;;
8413;SDS011;4244;48.684;9.028;2023-01-23T08:13:30;16.33;;;13.57;;
8413;SDS011;4244;48.684;9.028;2023-01-23T08:15:57;18.90;;;13.50;;
8413;SDS011;4244;48.684;9.028;2023-01-23T08:18:23;16.83;;;12.80;;
8413;SDS011;4244;48.684;9.028;2023-01-23T08:20:56;4.63;;;3.10;;
8413;SDS011;4244;48.684;9.028;2023-01-23T08:23:28;12.63;;;7.90;;
8413;SDS011;4244;48.684;9.028;2023-01-23T08:25:56;12.43;;;8.93;;
8413;SDS011;4244;48.684;9.028;2023-01-23T08:28:23;18.20;;;7.93;;
8413;SDS011;4244;48.684;9.028;2023-01-23T08:30:50;12.03;;;8.33;;
8413;SDS011;4244;48.684;9.028;2023-01-23T08:33:16;10.43;;;9.20;;
8413;SDS011;4244;48.684;9.028;2023-01-23T08:35:53;17.60;;;14.33;;
8413;SDS011;4244;48.684;9.028;2023-01-23T08:38:20;16.10;;;13.23;;
8413;SDS011;4244;48.684;9.028;2023-01-23T08:40:47;14.97;;;13.00;;
8413;SDS011;4244;48.684;9.028;2023-01-23T08:43:13;16.90;;;13.47;;
8413;SDS011;4244;48.684;9.028;2023-01-23T08:45:39;16.37;;;13.53;;
8413;SDS011;4244;48.684;9.028;2023-01-23T08:48:06;16.40;;;14.43;;
8413;SDS011;4244;48.684;9.028;2023-01-23T08:50:32;16.30;;;13.40;;
8413;SDS011;4244;48.684;9.028;2023-01-23T08:52:58;15.47;;;13.80;;
8413;SDS011;4244;48.684;9.028;2023-01-23T08:55:24;16.87;;;13.57;;
8413;SDS011;4244;48.684;9.028;2023-01-23T08:57:52;19.20;;;14.07;;
8413;SDS011;4244;48.684;9.028;2023-01-23T09:00:18;17.57;;;14.13;;
8413;SDS011;4244;48.684;9.028;2023-01-23T09:02:44;17.40;;;13.23;;
8413;SDS011;4244;48.684;9.028;2023-01-23T09:05:10;17.20;;;13.20;;
8413;SDS011;4244;48.684;9.028;2023-01-23T09:07:35;15.93;;;13.37;;
8413;SDS011;4244;48.684;9.028;2023-01-23T09:10:02;16.20;;;13.60;;
8413;SDS011;4244;48.684;9.028;2023-01-23T09:12:28;16.90;;;14.30;;
8413;SDS011;4244;48.684;9.028;2023-01-23T09:14:54;16.90;;;13.00;;
8413;SDS011;4244;48.684;9.028;2023-01-23T09:17:19;15.40;;;13.33;;
8413;SDS011;4244;48.684;9.028;2023-01-23T09:19:45;19.43;;;15.13;;
8413;SDS011;4244;48.684;9.028;2023-01-23T09:22:11;20.00;;;15.47;;
8413;SDS011;4244;48.684;9.028;2023-01-23T09:24:36;20.80;;;14.80;;
8413;SDS011;4244;48.684;9.028;2023-01-23T09:27:02;15.67;;;13.03;;
8413;SDS011;4244;48.684;9.028;2023-01-23T09:29:27;17.77;;;13.57;;
8413;SDS011;4244;48.684;9.028;2023-01-23T09:31:53;19.10;;;13.90;;
8413;SDS011;4244;48.684;9.028;2023-01-23T09:34:19;20.27;;;13.60;;
8413;SDS011;4244;48.684;9.028;2023-01-23T09:36:44;18.30;;;12.70;;
8413;SDS011;4244;48.684;9.028;2023-01-23T09:39:10;15.00;;;11.50;;
8413;SDS011;4244;48.684;9.028;2023-01-23T09:41:36;16.80;;;12.67;;
8413;SDS011;4244;48.684;9.028;2023-01-23T09:52:02;15.53;;;11.97;;
8413;SDS011;4244;48.684;9.028;2023-01-23T09:57:27;17.40;;;13.37;;
8413;SDS011;4244;48.684;9.028;2023-01-23T10:02:39;14.03;;;11.30;;
8413;SDS011;4244;48.684;9.028;2023-01-23T10:05:08;13.53;;;10.37;;
8413;SDS011;4244;48.684;9.028;2023-01-23T10:26:01;12.23;;;10.10;;
8413;SDS011;4244;48.684;9.028;2023-01-23T10:28:35;14.13;;;9.50;;
8413;SDS011;4244;48.684;9.028;2023-01-23T10:31:07;12.07;;;9.40;;
8413;SDS011;4244;48.684;9.028;2023-01-23T10:36:24;11.00;;;9.80;;
8413;SDS011;4244;48.684;9.028;2023-01-23T10:39:02;14.07;;;10.03;;
8413;SDS011;4244;48.684;9.028;2023-01-23T10:41:31;13.30;;;11.27;;
8413;SDS011;4244;48.684;9.028;2023-01-23T10:43:57;11.43;;;10.07;;
8413;SDS011;4244;48.684;9.028;2023-01-23T10:46:30;12.33;;;9.67;;
8413;SDS011;4244;48.684;9.028;2023-01-23T10:49:00;12.23;;;10.27;;
8413;SDS011;4244;48.684;9.028;2023-01-23T10:54:01;12.80;;;10.47;;
8413;SDS011;4244;48.684;9.028;2023-01-23T10:56:34;11.20;;;8.80;;
8413;SDS011;4244;48.684;9.028;2023-01-23T10:59:02;11.70;;;9.80;;
8413;SDS011;4244;48.684;9.028;2023-01-23T11:01:31;10.70;;;9.03;;
8413;SDS011;4244;48.684;9.028;2023-01-23T11:04:19;12.00;;;9.97;;
8413;SDS011;4244;48.684;9.028;2023-01-23T11:06:44;12.27;;;9.43;;
8413;SDS011;4244;48.684;9.028;2023-01-23T11:09:26;12.33;;;11.03;;
8413;SDS011;4244;48.684;9.028;2023-01-23T11:12:02;11.73;;;9.80;;
8413;SDS011;4244;48.684;9.028;2023-01-23T11:14:29;13.27;;;10.17;;
8413;SDS011;4244;48.684;9.028;2023-01-23T11:16:59;11.67;;;10.40;;
8413;SDS011;4244;48.684;9.028;2023-01-23T11:19:35;12.90;;;10.47;;
8413;SDS011;4244;48.684;9.028;2023-01-23T11:22:01;11.80;;;10.20;;
8413;SDS011;4244;48.684;9.028;2023-01-23T11:27:01;11.83;;;9.97;;
8413;SDS011;4244;48.684;9.028;2023-01-23T11:29:41;12.50;;;10.20;;
8413;SDS011;4244;48.684;9.028;2023-01-23T11:32:20;13.27;;;10.90;;
8413;SDS011;4244;48.684;9.028;2023-01-23T11:34:50;13.47;;;10.60;;
8413;SDS011;4244;48.684;9.028;2023-01-23T11:37:26;12.60;;;10.73;;
8413;SDS011;4244;48.684;9.028;2023-01-23T11:39:58;11.73;;;10.17;;
8413;SDS011;4244;48.684;9.028;2023-01-23T11:42:37;15.17;;;11.70;;
8413;SDS011;4244;48.684;9.028;2023-01-23T11:45:11;13.93;;;10.80;;
8413;SDS011;4244;48.684;9.028;2023-01-23T11:50:27;13.80;;;11.10;;
8413;SDS011;4244;48.684;9.028;2023-01-23T11:52:56;13.90;;;11.20;;
8413;SDS011;4244;48.684;9.028;2023-01-23T12:03:55;14.53;;;11.53;;
8413;SDS011;4244;48.684;9.028;2023-01-23T12:09:11;14.00;;;7.77;;
8413;SDS011;4244;48.684;9.028;2023-01-23T12:11:51;8.93;;;7.57;;
8413;SDS011;4244;48.684;9.028;2023-01-23T12:17:00;13.90;;;11.33;;
8413;SDS011;4244;48.684;9.028;2023-01-23T12:22:14;14.87;;;11.97;;
8413;SDS011;4244;48.684;9.028;2023-01-23T12:25:00;16.57;;;12.57;;
8413;SDS011;4244;48.684;9.028;2023-01-23T12:27:45;15.67;;;13.20;;
8413;SDS011;4244;48.684;9.028;2023-01-23T12:30:22;15.80;;;13.30;;
8413;SDS011;4244;48.684;9.028;2023-01-23T12:41:28;14.50;;;12.47;;
8413;SDS011;4244;48.684;9.028;2023-01-23T12:44:13;14.67;;;12.03;;
8413;SDS011;4244;48.684;9.028;2023-01-23T12:46:49;14.67;;;12.27;;
8413;SDS011;4244;48.684;9.028;2023-01-23T12:51:45;13.87;;;12.27;;
8413;SDS011;4244;48.684;9.028;2023-01-23T12:54:16;16.00;;;12.50;;
8413;SDS011;4244;48.684;9.028;2023-01-23T12:56:44;14.10;;;12.13;;
8413;SDS011;4244;48.684;9.028;2023-01-23T13:07:07;14.70;;;12.80;;
8413;SDS011;4244;48.684;9.028;2023-01-23T13:12:36;12.50;;;11.20;;
8413;SDS011;4244;48.684;9.028;2023-01-23T13:21:09;12.57;;;10.97;;
8413;SDS011;4244;48.684;9.028;2023-01-23T13:23:40;13.57;;;10.50;;
8413;SDS011;4244;48.684;9.028;2023-01-23T13:28:47;13.53;;;11.60;;
8413;SDS011;4244;48.684;9.028;2023-01-23T13:36:42;16.00;;;11.90;;
8413;SDS011;4244;48.684;9.028;2023-01-23T13:41:41;13.07;;;11.50;;
8413;SDS011;4244;48.684;9.028;2023-01-23T13:58:17;13.70;;;11.47;;
8413;SDS011;4244;48.684;9.028;2023-01-23T14:03:48;13.90;;;11.63;;
8413;SDS011;4244;48.684;9.028;2023-01-23T14:06:35;14.80;;;12.03;;
8413;SDS011;4244;48.684;9.028;2023-01-23T14:09:03;12.90;;;10.67;;
8413;SDS011;4244;48.684;9.028;2023-01-23T14:11:41;14.07;;;11.60;;
8413;SDS011;4244;48.684;9.028;2023-01-23T14:14:09;13.50;;;11.53;;
8413;SDS011;4244;48.684;9.028;2023-01-23T14:16:53;14.27;;;12.07;;
8413;SDS011;4244;48.684;9.028;2023-01-23T14:19:26;14.30;;;11.13;;
8413;SDS011;4244;48.684;9.028;2023-01-23T14:21:54;14.03;;;11.93;;
8413;SDS011;4244;48.684;9.028;2023-01-23T14:24:25;14.93;;;11.53;;
8413;SDS011;4244;48.684;9.028;2023-01-23T14:27:32;12.43;;;10.30;;
8413;SDS011;4244;48.684;9.028;2023-01-23T14:30:18;15.07;;;11.73;;
8413;SDS011;4244;48.684;9.028;2023-01-23T14:32:47;15.90;;;11.53;;
8413;SDS011;4244;48.684;9.028;2023-01-23T14:35:17;14.33;;;12.43;;
8413;SDS011;4244;48.684;9.028;2023-01-23T14:37:54;16.33;;;12.80;;
8413;SDS011;4244;48.684;9.028;2023-01-23T14:40:22;17.10;;;12.83;;
8413;SDS011;4244;48.684;9.028;2023-01-23T14:42:52;17.70;;;13.60;;
8413;SDS011;4244;48.684;9.028;2023-01-23T14:45:22;18.40;;;13.17;;
8413;SDS011;4244;48.684;9.028;2023-01-23T14:47:48;17.20;;;13.87;;
8413;SDS011;4244;48.684;9.028;2023-01-23T14:50:21;17.27;;;13.73;;
8413;SDS011;4244;48.684;9.028;2023-01-23T14:52:55;14.53;;;11.57;;
8413;SDS011;4244;48.684;9.028;2023-01-23T14:55:23;10.00;;;6.30;;
8413;SDS011;4244;48.684;9.028;2023-01-23T14:57:50;10.23;;;7.60;;
8413;SDS011;4244;48.684;9.028;2023-01-23T15:00:18;14.20;;;11.43;;
8413;SDS011;4244;48.684;9.028;2023-01-23T15:02:45;12.90;;;10.70;;
8413;SDS011;4244;48.684;9.028;2023-01-23T15:13:06;14.30;;;12.10;;
8413;SDS011;4244;48.684;9.028;2023-01-23T15:15:35;14.30;;;11.77;;
8413;SDS011;4244;48.684;9.028;2023-01-23T15:18:02;19.00;;;11.00;;
8413;SDS011;4244;48.684;9.028;2023-01-23T15:20:37;15.60;;;12.00;;
8413;SDS011;4244;48.684;9.028;2023-01-23T15:23:21;16.50;;;12.93;;
8413;SDS011;4244;48.684;9.028;2023-01-23T15:26:07;14.47;;;11.27;;
8413;SDS011;4244;48.684;9.028;2023-01-23T15:33:48;12.77;;;10.80;;
8413;SDS011;4244;48.684;9.028;2023-01-23T15:36:25;13.60;;;11.63;;
8413;SDS011;4244;48.684;9.028;2023-01-23T15:38:54;13.23;;;11.47;;
8413;SDS011;4244;48.684;9.028;2023-01-23T15:41:36;14.20;;;11.20;;
8413;SDS011;4244;48.684;9.028;2023-01-23T15:44:07;14.60;;;13.10;;
8413;SDS011;4244;48.684;9.028;2023-01-23T15:46:36;13.80;;;11.80;;
8413;SDS011;4244;48.684;9.028;2023-01-23T15:49:02;15.50;;;10.50;;
8413;SDS011;4244;48.684;9.028;2023-01-23T15:51:27;14.97;;;12.07;;
8413;SDS011;4244;48.684;9.028;2023-01-23T15:53:53;16.23;;;12.80;;
8413;SDS011;4244;48.684;9.028;2023-01-23T15:56:23;15.50;;;11.67;;
8413;SDS011;4244;48.684;9.028;2023-01-23T15:58:54;15.03;;;12.00;;
8413;SDS011;4244;48.684;9.028;2023-01-23T16:01:20;16.37;;;11.77;;
8413;SDS011;4244;48.684;9.028;2023-01-23T16:03:45;19.40;;;13.60;;
8413;SDS011;4244;48.684;9.028;2023-01-23T16:06:21;15.20;;;12.40;;
8413;SDS011;4244;48.684;9.028;2023-01-23T16:08:47;14.30;;;12.40;;
8413;SDS011;4244;48.684;9.028;2023-01-23T16:11:14;15.33;;;12.80;;
8413;SDS011;4244;48.684;9.028;2023-01-23T16:13:40;14.00;;;11.93;;
8413;SDS011;4244;48.684;9.028;2023-01-23T16:16:15;14.60;;;12.07;;
8413;SDS011;4244;48.684;9.028;2023-01-23T16:18:42;15.90;;;12.53;;
8413;SDS011;4244;48.684;9.028;2023-01-23T16:21:18;13.80;;;11.57;;
8413;SDS011;4244;48.684;9.028;2023-01-23T16:23:45;16.67;;;12.90;;
8413;SDS011;4244;48.684;9.028;2023-01-23T16:26:20;15.43;;;11.97;;
8413;SDS011;4244;48.684;9.028;2023-01-23T16:28:47;18.50;;;14.27;;
8413;SDS011;4244;48.684;9.028;2023-01-23T16:31:14;14.83;;;12.70;;
8413;SDS011;4244;48.684;9.028;2023-01-23T16:33:40;14.10;;;12.23;;
8413;SDS011;4244;48.684;9.028;2023-01-23T16:36:10;17.00;;;13.53;;
8413;SDS011;4244;48.684;9.028;2023-01-23T16:38:52;16.40;;;12.80;;
8413;SDS011;4244;48.684;9.028;2023-01-23T16:41:22;15.50;;;12.37;;
8413;SDS011;4244;48.684;9.028;2023-01-23T16:43:47;17.20;;;14.90;;
8413;SDS011;4244;48.684;9.028;2023-01-23T16:46:13;17.47;;;13.47;;
8413;SDS011;4244;48.684;9.028;2023-01-23T16:48:39;16.07;;;13.37;;
8413;SDS011;4244;48.684;9.028;2023-01-23T16:51:16;15.63;;;13.10;;
8413;SDS011;4244;48.684;9.028;2023-01-23T16:53:47;16.37;;;14.13;;
8413;SDS011;4244;48.684;9.028;2023-01-23T16:56:23;18.50;;;14.10;;
8413;SDS011;4244;48.684;9.028;2023-01-23T16:58:54;17.67;;;14.10;;
8413;SDS011;4244;48.684;9.028;2023-01-23T17:01:20;16.70;;;14.53;;
8413;SDS011;4244;48.684;9.028;2023-01-23T17:03:56;18.00;;;14.00;;
8413;SDS011;4244;48.684;9.028;2023-01-23T17:06:24;16.50;;;13.70;;
8413;SDS011;4244;48.684;9.028;2023-01-23T17:08:50;19.27;;;16.43;;
8413;SDS011;4244;48.684;9.028;2023-01-23T17:11:22;17.90;;;14.73;;
8413;SDS011;4244;48.684;9.028;2023-01-23T17:13:58;19.07;;;14.60;;
8413;SDS011;4244;48.684;9.028;2023-01-23T17:16:27;18.67;;;14.33;;